createdAt,value
2017-11-05T00:00:05.338Z,962.43
2017-11-05T00:01:05.788Z,962.43
2017-11-05T00:02:05.768Z,962.41
2017-11-05T00:03:05.493Z,962.40
2017-11-05T00:04:05.546Z,962.36
2017-11-05T00:05:05.632Z,962.39
2017-11-05T00:06:05.822Z,962.36
2017-11-05T00:07:06.311Z,962.32
2017-11-05T00:08:06.077Z,962.33
2017-11-05T00:09:05.726Z,962.33
2017-11-05T00:10:05.985Z,962.30
2017-11-05T00:11:05.980Z,962.25
2017-11-05T00:12:06.391Z,962.22
2017-11-05T00:13:06.520Z,962.17
2017-11-05T00:14:06.004Z,962.18
2017-11-05T00:15:06.109Z,962.16
2017-11-05T00:16:06.113Z,962.15
2017-11-05T00:17:06.296Z,962.08
2017-11-05T00:18:06.523Z,962.04
2017-11-05T00:19:06.125Z,961.98
2017-11-05T00:20:06.277Z,961.96
2017-11-05T00:21:06.739Z,961.95
2017-11-05T00:22:06.958Z,961.91
2017-11-05T00:23:06.507Z,961.95
2017-11-05T00:24:06.428Z,961.93
2017-11-05T00:25:06.777Z,961.91
2017-11-05T00:26:06.970Z,961.89
2017-11-05T00:27:06.693Z,961.83
2017-11-05T00:28:06.886Z,961.81
2017-11-05T00:29:06.874Z,961.80
2017-11-05T00:30:06.722Z,961.81
2017-11-05T00:31:06.819Z,961.80
2017-11-05T00:32:07.325Z,961.77
2017-11-05T00:33:07.337Z,961.78
2017-11-05T00:34:07.142Z,961.74
2017-11-05T00:35:06.947Z,961.68
2017-11-05T00:36:07.233Z,961.64
2017-11-05T00:37:07.189Z,961.61
2017-11-05T00:38:07.148Z,961.58
2017-11-05T00:39:07.307Z,961.58
2017-11-05T00:40:07.798Z,961.57
2017-11-05T00:41:07.527Z,961.57
2017-11-05T00:42:07.195Z,961.56
2017-11-05T00:43:07.801Z,961.50
2017-11-05T00:44:07.736Z,961.47
2017-11-05T00:45:07.422Z,961.47
2017-11-05T00:46:07.419Z,961.52
2017-11-05T00:47:07.456Z,961.39
2017-11-05T00:48:07.803Z,961.36
2017-11-05T00:49:07.699Z,961.36
2017-11-05T00:50:07.793Z,961.28
2017-11-05T00:51:07.764Z,961.25
2017-11-05T00:52:07.952Z,961.19
2017-11-05T00:53:08.045Z,961.18
2017-11-05T00:54:07.980Z,961.22
2017-11-05T00:55:07.836Z,961.16
2017-11-05T00:56:08.182Z,961.14
2017-11-05T00:57:08.123Z,961.12
2017-11-05T00:58:08.233Z,961.10
2017-11-05T00:59:08.155Z,961.09
2017-11-05T01:00:08.737Z,961.15
2017-11-05T01:01:08.170Z,961.17
2017-11-05T01:02:08.226Z,961.13
2017-11-05T01:03:08.620Z,961.09
2017-11-05T01:04:08.546Z,961.09
2017-11-05T01:05:08.424Z,961.04
2017-11-05T01:06:08.394Z,960.98
2017-11-05T01:07:08.743Z,960.97
2017-11-05T01:08:08.764Z,960.93
2017-11-05T01:09:08.444Z,960.93
2017-11-05T01:10:08.618Z,960.89
2017-11-05T01:11:08.643Z,960.89
2017-11-05T01:12:08.704Z,960.84
2017-11-05T01:13:08.792Z,960.87
2017-11-05T01:14:08.832Z,960.94
2017-11-05T01:15:09.124Z,960.92
2017-11-05T01:16:08.972Z,960.95
2017-11-05T01:17:08.942Z,960.89
2017-11-05T01:18:09.137Z,960.88
2017-11-05T01:19:08.895Z,960.84
2017-11-05T01:20:09.199Z,960.81
2017-11-05T01:21:09.037Z,960.78
2017-11-05T01:22:09.090Z,960.80
2017-11-05T01:23:09.249Z,960.86
2017-11-05T01:24:09.487Z,960.80
2017-11-05T01:25:09.414Z,960.89
2017-11-05T01:26:09.521Z,960.87
2017-11-05T01:27:09.687Z,960.82
2017-11-05T01:28:09.443Z,960.81
2017-11-05T01:29:09.894Z,960.77
2017-11-05T01:30:09.602Z,960.79
2017-11-05T01:31:09.752Z,960.80
2017-11-05T01:32:09.505Z,960.80
2017-11-05T01:33:09.580Z,960.81
2017-11-05T01:34:09.910Z,960.87
2017-11-05T01:35:09.817Z,960.83
2017-11-05T01:36:09.677Z,960.79
2017-11-05T01:37:09.777Z,960.75
2017-11-05T01:38:09.809Z,960.74
2017-11-05T01:39:10.165Z,960.74
2017-11-05T01:40:09.947Z,960.69
2017-11-05T01:41:10.157Z,960.67
2017-11-05T01:42:10.173Z,960.67
2017-11-05T01:43:10.206Z,960.72
2017-11-05T01:44:10.182Z,960.68
2017-11-05T01:45:10.559Z,960.70
2017-11-05T01:46:10.399Z,960.76
2017-11-05T01:47:10.324Z,960.79
2017-11-05T01:48:10.374Z,960.78
2017-11-05T01:49:10.872Z,960.83
2017-11-05T01:50:11.118Z,960.91
2017-11-05T01:51:10.428Z,961.01
2017-11-05T01:52:10.600Z,960.99
2017-11-05T01:53:11.036Z,961.02
2017-11-05T01:54:10.858Z,961.01
2017-11-05T01:55:10.734Z,961.05
2017-11-05T01:56:10.720Z,961.00
2017-11-05T01:57:10.648Z,961.08
2017-11-05T01:58:11.143Z,961.06
2017-11-05T01:59:10.985Z,961.06
2017-11-05T02:00:11.301Z,961.05
2017-11-05T02:01:10.814Z,961.04
2017-11-05T02:02:10.981Z,961.03
2017-11-05T02:03:11.179Z,961.03
2017-11-05T02:04:11.018Z,961.05
2017-11-05T02:05:11.159Z,961.16
2017-11-05T02:06:11.216Z,961.23
2017-11-05T02:07:11.213Z,961.24
2017-11-05T02:08:11.389Z,961.24
2017-11-05T02:09:11.547Z,961.21
2017-11-05T02:10:11.906Z,961.23
2017-11-05T02:11:11.558Z,961.23
2017-11-05T02:12:11.335Z,961.28
2017-11-05T02:13:11.439Z,961.31
2017-11-05T02:14:11.788Z,961.31
2017-11-05T02:15:11.884Z,961.33
2017-11-05T02:16:11.762Z,961.36
2017-11-05T02:17:11.793Z,961.30
2017-11-05T02:18:11.793Z,961.27
2017-11-05T02:19:11.833Z,961.29
2017-11-05T02:20:11.898Z,961.30
2017-11-05T02:21:11.849Z,961.25
2017-11-05T02:22:11.907Z,961.27
2017-11-05T02:23:12.131Z,961.25
2017-11-05T02:24:11.987Z,961.25
2017-11-05T02:25:12.238Z,961.23
2017-11-05T02:26:12.163Z,961.21
2017-11-05T02:27:12.329Z,961.26
2017-11-05T02:28:12.725Z,961.34
2017-11-05T02:29:12.923Z,961.29
2017-11-05T02:30:12.702Z,961.25
2017-11-05T02:31:12.582Z,961.18
2017-11-05T02:32:12.302Z,961.19
2017-11-05T02:33:12.500Z,961.18
2017-11-05T02:34:12.879Z,961.26
2017-11-05T02:35:12.642Z,961.22
2017-11-05T02:36:13.149Z,961.22
2017-11-05T02:37:13.244Z,961.22
2017-11-05T02:38:12.671Z,961.24
2017-11-05T02:39:13.093Z,961.24
2017-11-05T02:40:12.856Z,961.23
2017-11-05T02:41:12.842Z,961.21
2017-11-05T02:42:13.191Z,961.11
2017-11-05T02:43:13.210Z,961.10
2017-11-05T02:44:12.902Z,961.14
2017-11-05T02:45:13.619Z,961.17
2017-11-05T02:46:13.079Z,961.18
2017-11-05T02:47:13.235Z,961.26
2017-11-05T02:48:13.041Z,961.36
2017-11-05T02:49:13.313Z,961.34
2017-11-05T02:50:13.069Z,961.38
2017-11-05T02:51:13.438Z,961.41
2017-11-05T02:52:13.326Z,961.39
2017-11-05T02:53:13.365Z,961.39
2017-11-05T02:54:13.337Z,961.41
2017-11-05T02:55:13.440Z,961.40
2017-11-05T02:56:13.495Z,961.42
2017-11-05T02:57:14.087Z,961.40
2017-11-05T02:58:14.181Z,961.43
2017-11-05T02:59:13.914Z,961.49
2017-11-05T03:00:14.192Z,961.56
2017-11-05T03:01:13.858Z,961.63
2017-11-05T03:02:13.849Z,961.66
2017-11-05T03:03:14.184Z,961.67
2017-11-05T03:04:13.939Z,961.68
2017-11-05T03:05:13.975Z,961.69
2017-11-05T03:06:14.191Z,961.73
2017-11-05T03:07:14.034Z,961.72
2017-11-05T03:08:14.173Z,961.70
2017-11-05T03:09:13.989Z,961.69
2017-11-05T03:10:14.230Z,961.71
2017-11-05T03:11:14.581Z,961.74
2017-11-05T03:12:14.315Z,961.75
2017-11-05T03:13:14.593Z,961.78
2017-11-05T03:14:14.501Z,961.83
2017-11-05T03:15:14.310Z,961.85
2017-11-05T03:16:14.640Z,961.90
2017-11-05T03:17:14.671Z,961.93
2017-11-05T03:18:14.793Z,962.01
2017-11-05T03:19:14.467Z,962.04
2017-11-05T03:20:14.618Z,962.08
2017-11-05T03:21:14.761Z,962.07
2017-11-05T03:22:14.564Z,962.09
2017-11-05T03:23:14.653Z,962.07
2017-11-05T03:24:15.037Z,962.10
2017-11-05T03:25:14.841Z,962.02
2017-11-05T03:26:14.905Z,961.99
2017-11-05T03:27:14.901Z,961.95
2017-11-05T03:28:15.160Z,961.88
2017-11-05T03:29:14.930Z,961.85
2017-11-05T03:30:15.262Z,961.80
2017-11-05T03:31:15.303Z,961.78
2017-11-05T03:32:15.227Z,961.73
2017-11-05T03:33:15.068Z,961.75
2017-11-05T03:34:15.284Z,961.78
2017-11-05T03:35:15.327Z,961.73
2017-11-05T03:36:15.356Z,961.83
2017-11-05T03:37:16.070Z,961.84
2017-11-05T03:38:15.277Z,961.82
2017-11-05T03:39:15.755Z,961.89
2017-11-05T03:40:15.529Z,961.90
2017-11-05T03:41:16.191Z,961.95
2017-11-05T03:42:16.144Z,961.93
2017-11-05T03:43:16.297Z,961.92
2017-11-05T03:44:16.233Z,961.95
2017-11-05T03:45:15.638Z,961.96
2017-11-05T03:46:15.860Z,961.99
2017-11-05T03:47:15.976Z,961.96
2017-11-05T03:48:15.828Z,961.99
2017-11-05T03:49:15.862Z,961.98
2017-11-05T03:50:16.076Z,961.95
2017-11-05T03:51:16.109Z,961.97
2017-11-05T03:52:16.127Z,961.99
2017-11-05T03:53:16.298Z,961.96
2017-11-05T03:54:16.114Z,961.93
2017-11-05T03:55:16.534Z,961.95
2017-11-05T03:56:16.111Z,961.95
2017-11-05T03:57:16.290Z,961.93
2017-11-05T03:58:16.486Z,961.94
2017-11-05T03:59:16.305Z,961.97
2017-11-05T04:00:16.431Z,962.01
2017-11-05T04:01:16.432Z,962.07
2017-11-05T04:02:16.564Z,962.11
2017-11-05T04:03:16.800Z,962.16
2017-11-05T04:04:16.723Z,962.16
2017-11-05T04:05:16.546Z,962.17
2017-11-05T04:06:16.626Z,962.22
2017-11-05T04:07:17.026Z,962.20
2017-11-05T04:08:16.905Z,962.16
2017-11-05T04:09:16.718Z,962.17
2017-11-05T04:10:17.168Z,962.20
2017-11-05T04:11:16.862Z,962.20
2017-11-05T04:12:16.853Z,962.23
2017-11-05T04:13:17.361Z,962.23
2017-11-05T04:14:17.007Z,962.29
2017-11-05T04:15:17.163Z,962.30
2017-11-05T04:16:17.586Z,962.34
2017-11-05T04:17:17.333Z,962.35
2017-11-05T04:18:17.668Z,962.31
2017-11-05T04:19:17.659Z,962.29
2017-11-05T04:20:17.773Z,962.28
2017-11-05T04:21:17.740Z,962.29
2017-11-05T04:22:17.362Z,962.29
2017-11-05T04:23:17.934Z,962.28
2017-11-05T04:24:17.556Z,962.30
2017-11-05T04:25:17.505Z,962.26
2017-11-05T04:26:17.494Z,962.23
2017-11-05T04:27:17.927Z,962.15
2017-11-05T04:28:17.881Z,962.19
2017-11-05T04:29:18.238Z,962.19
2017-11-05T04:30:17.892Z,962.21
2017-11-05T04:31:17.949Z,962.20
2017-11-05T04:32:17.805Z,962.24
2017-11-05T04:33:18.181Z,962.26
2017-11-05T04:34:17.959Z,962.33
2017-11-05T04:35:17.908Z,962.38
2017-11-05T04:36:17.974Z,962.37
2017-11-05T04:37:18.017Z,962.43
2017-11-05T04:38:18.615Z,962.46
2017-11-05T04:39:18.405Z,962.43
2017-11-05T04:40:18.453Z,962.39
2017-11-05T04:41:18.601Z,962.42
2017-11-05T04:42:18.299Z,962.41
2017-11-05T04:43:18.499Z,962.36
2017-11-05T04:44:18.309Z,962.39
2017-11-05T04:45:18.609Z,962.40
2017-11-05T04:46:18.610Z,962.42
2017-11-05T04:47:18.476Z,962.43
2017-11-05T04:48:18.927Z,962.41
2017-11-05T04:49:18.774Z,962.46
2017-11-05T04:50:18.987Z,962.53
2017-11-05T04:51:18.655Z,962.52
2017-11-05T04:52:18.903Z,962.50
2017-11-05T04:53:18.900Z,962.52
2017-11-05T04:54:18.895Z,962.48
2017-11-05T04:55:19.091Z,962.42
2017-11-05T04:56:19.437Z,962.36
2017-11-05T04:57:19.145Z,962.38
2017-11-05T04:58:19.146Z,962.33
2017-11-05T04:59:19.743Z,962.28
2017-11-05T05:00:19.414Z,962.32
2017-11-05T05:01:19.294Z,962.34
2017-11-05T05:02:19.232Z,962.40
2017-11-05T05:03:19.281Z,962.37
2017-11-05T05:04:19.439Z,962.39
2017-11-05T05:05:19.534Z,962.31
2017-11-05T05:06:19.385Z,962.29
2017-11-05T05:07:19.814Z,962.25
2017-11-05T05:08:19.467Z,962.25
2017-11-05T05:09:19.996Z,962.22
2017-11-05T05:10:19.558Z,962.23
2017-11-05T05:11:19.736Z,962.21
2017-11-05T05:12:19.950Z,962.22
2017-11-05T05:13:19.655Z,962.20
2017-11-05T05:14:20.346Z,962.15
2017-11-05T05:15:20.215Z,962.17
2017-11-05T05:16:20.012Z,962.15
2017-11-05T05:17:20.059Z,962.09
2017-11-05T05:18:20.111Z,962.10
2017-11-05T05:19:20.344Z,962.11
2017-11-05T05:20:20.111Z,962.07
2017-11-05T05:21:20.145Z,962.10
2017-11-05T05:22:20.531Z,962.14
2017-11-05T05:23:20.402Z,962.12
2017-11-05T05:24:20.531Z,962.16
2017-11-05T05:25:20.223Z,962.14
2017-11-05T05:26:20.617Z,962.14
2017-11-05T05:27:20.475Z,962.08
2017-11-05T05:28:20.520Z,962.06
2017-11-05T05:29:20.596Z,962.04
2017-11-05T05:30:20.419Z,962.00
2017-11-05T05:31:20.598Z,962.01
2017-11-05T05:32:20.756Z,961.98
2017-11-05T05:33:20.697Z,961.99
2017-11-05T05:34:21.115Z,961.99
2017-11-05T05:35:20.738Z,961.94
2017-11-05T05:36:21.397Z,961.95
2017-11-05T05:37:20.847Z,961.90
2017-11-05T05:38:20.944Z,961.92
2017-11-05T05:39:21.332Z,961.90
2017-11-05T05:40:21.302Z,961.89
2017-11-05T05:41:21.203Z,961.92
2017-11-05T05:42:21.162Z,961.88
2017-11-05T05:43:21.135Z,961.84
2017-11-05T05:44:21.531Z,961.80
2017-11-05T05:45:21.566Z,961.80
2017-11-05T05:46:21.206Z,961.79
2017-11-05T05:47:21.656Z,961.85
2017-11-05T05:48:21.301Z,961.86
2017-11-05T05:49:21.609Z,961.91
2017-11-05T05:50:21.620Z,961.87
2017-11-05T05:51:21.611Z,961.90
2017-11-05T05:52:21.634Z,961.86
2017-11-05T05:53:21.686Z,961.83
2017-11-05T05:54:21.946Z,961.81
2017-11-05T05:55:22.129Z,961.75
2017-11-05T05:56:21.890Z,961.75
2017-11-05T05:57:21.893Z,961.72
2017-11-05T05:58:21.935Z,961.67
2017-11-05T05:59:21.977Z,961.64
2017-11-05T06:00:22.486Z,961.60
2017-11-05T06:01:22.317Z,961.61
2017-11-05T06:02:22.213Z,961.61
2017-11-05T06:03:22.212Z,961.56
2017-11-05T06:04:22.420Z,961.60
2017-11-05T06:05:22.071Z,961.55
2017-11-05T06:06:22.510Z,961.57
2017-11-05T06:07:22.144Z,961.60
2017-11-05T06:08:22.979Z,961.62
2017-11-05T06:09:23.032Z,961.64
2017-11-05T06:10:22.724Z,961.66
2017-11-05T06:11:22.741Z,961.68
2017-11-05T06:12:22.467Z,961.68
2017-11-05T06:13:22.423Z,961.63
2017-11-05T06:14:22.651Z,961.54
2017-11-05T06:15:22.724Z,961.51
2017-11-05T06:16:22.991Z,961.49
2017-11-05T06:17:22.631Z,961.47
2017-11-05T06:18:22.805Z,961.53
2017-11-05T06:19:22.717Z,961.53
2017-11-05T06:20:22.875Z,961.55
2017-11-05T06:21:23.281Z,961.62
2017-11-05T06:22:22.897Z,961.61
2017-11-05T06:23:23.150Z,961.59
2017-11-05T06:24:23.207Z,961.58
2017-11-05T06:25:23.073Z,961.54
2017-11-05T06:26:23.629Z,961.50
2017-11-05T06:27:23.272Z,961.45
2017-11-05T06:28:23.319Z,961.42
2017-11-05T06:29:23.253Z,961.39
2017-11-05T06:30:23.218Z,961.36
2017-11-05T06:31:23.862Z,961.40
2017-11-05T06:32:23.396Z,961.42
2017-11-05T06:33:23.360Z,961.44
2017-11-05T06:34:23.480Z,961.48
2017-11-05T06:35:23.763Z,961.48
2017-11-05T06:36:23.795Z,961.48
2017-11-05T06:37:23.674Z,961.47
2017-11-05T06:38:23.792Z,961.45
2017-11-05T06:39:23.727Z,961.40
2017-11-05T06:40:23.756Z,961.37
2017-11-05T06:41:24.361Z,961.37
2017-11-05T06:42:23.841Z,961.38
2017-11-05T06:43:24.330Z,961.36
2017-11-05T06:44:24.045Z,961.40
2017-11-05T06:45:23.971Z,961.37
2017-11-05T06:46:24.300Z,961.41
2017-11-05T06:47:24.805Z,961.37
2017-11-05T06:48:24.364Z,961.40
2017-11-05T06:49:24.197Z,961.43
2017-11-05T06:50:24.232Z,961.48
2017-11-05T06:51:24.370Z,961.47
2017-11-05T06:52:24.631Z,961.48
2017-11-05T06:53:24.690Z,961.47
2017-11-05T06:54:24.520Z,961.44
2017-11-05T06:55:24.704Z,961.42
2017-11-05T06:56:24.784Z,961.46
2017-11-05T06:57:25.015Z,961.45
2017-11-05T06:58:24.632Z,961.46
2017-11-05T06:59:24.823Z,961.48
2017-11-05T07:00:24.848Z,961.48
2017-11-05T07:01:24.759Z,961.49
2017-11-05T07:02:25.118Z,961.48
2017-11-05T07:03:24.744Z,961.49
2017-11-05T07:04:24.908Z,961.46
2017-11-05T07:05:25.054Z,961.45
2017-11-05T07:06:25.271Z,961.48
2017-11-05T07:07:25.045Z,961.51
2017-11-05T07:08:25.147Z,961.60
2017-11-05T07:09:25.422Z,961.65
2017-11-05T07:10:25.121Z,961.68
2017-11-05T07:11:25.297Z,961.74
2017-11-05T07:12:25.678Z,961.77
2017-11-05T07:13:25.325Z,961.78
2017-11-05T07:14:25.290Z,961.84
2017-11-05T07:15:25.614Z,961.83
2017-11-05T07:16:25.606Z,961.84
2017-11-05T07:17:25.832Z,961.85
2017-11-05T07:18:25.863Z,961.84
2017-11-05T07:19:25.604Z,961.87
2017-11-05T07:20:25.578Z,961.86
2017-11-05T07:21:25.703Z,961.88
2017-11-05T07:22:25.779Z,961.91
2017-11-05T07:23:26.028Z,961.89
2017-11-05T07:24:25.986Z,961.90
2017-11-05T07:25:25.824Z,961.87
2017-11-05T07:26:25.928Z,961.84
2017-11-05T07:27:26.185Z,961.84
2017-11-05T07:28:25.966Z,961.84
2017-11-05T07:29:26.069Z,961.81
2017-11-05T07:30:26.298Z,961.89
2017-11-05T07:31:26.650Z,961.89
2017-11-05T07:32:26.659Z,961.94
2017-11-05T07:33:26.467Z,961.98
2017-11-05T07:34:26.409Z,961.96
2017-11-05T07:35:26.475Z,961.92
2017-11-05T07:36:26.716Z,961.96
2017-11-05T07:37:26.822Z,961.98
2017-11-05T07:38:26.585Z,961.98
2017-11-05T07:39:26.637Z,961.92
2017-11-05T07:40:26.726Z,961.90
2017-11-05T07:41:26.681Z,961.88
2017-11-05T07:42:27.262Z,961.92
2017-11-05T07:43:27.101Z,961.94
2017-11-05T07:44:26.976Z,961.94
2017-11-05T07:45:26.792Z,961.96
2017-11-05T07:46:26.926Z,961.94
2017-11-05T07:47:27.537Z,961.95
2017-11-05T07:48:27.059Z,961.98
2017-11-05T07:49:27.226Z,961.94
2017-11-05T07:50:27.280Z,961.93
2017-11-05T07:51:27.625Z,961.98
2017-11-05T07:52:27.322Z,961.96
2017-11-05T07:53:27.639Z,962.00
2017-11-05T07:54:27.487Z,962.01
2017-11-05T07:55:27.905Z,961.94
2017-11-05T07:56:27.313Z,961.99
2017-11-05T07:57:27.781Z,962.01
2017-11-05T07:58:27.703Z,961.99
2017-11-05T07:59:27.504Z,961.94
2017-11-05T08:00:27.622Z,961.90
2017-11-05T08:01:27.721Z,961.92
2017-11-05T08:02:27.763Z,961.93
2017-11-05T08:03:27.932Z,961.86
2017-11-05T08:04:27.763Z,961.89
2017-11-05T08:05:27.813Z,961.90
2017-11-05T08:06:27.761Z,961.86
2017-11-05T08:07:28.243Z,961.87
2017-11-05T08:08:28.254Z,961.84
2017-11-05T08:09:27.962Z,961.86
2017-11-05T08:10:28.176Z,961.84
2017-11-05T08:11:28.186Z,961.81
2017-11-05T08:12:28.203Z,961.82
2017-11-05T08:13:28.442Z,961.79
2017-11-05T08:14:28.127Z,961.79
2017-11-05T08:15:28.134Z,961.79
2017-11-05T08:16:28.199Z,961.75
2017-11-05T08:17:28.291Z,961.76
2017-11-05T08:18:28.271Z,961.77
2017-11-05T08:19:28.755Z,961.75
2017-11-05T08:20:28.784Z,961.76
2017-11-05T08:21:28.461Z,961.73
2017-11-05T08:22:28.529Z,961.75
2017-11-05T08:23:28.897Z,961.75
2017-11-05T08:24:28.896Z,961.74
2017-11-05T08:25:28.587Z,961.76
2017-11-05T08:26:28.917Z,961.77
2017-11-05T08:27:28.813Z,961.75
2017-11-05T08:28:28.928Z,961.73
2017-11-05T08:29:29.291Z,961.70
2017-11-05T08:30:28.924Z,961.75
2017-11-05T08:31:28.995Z,961.75
2017-11-05T08:32:29.552Z,961.70
2017-11-05T08:33:29.285Z,961.75
2017-11-05T08:34:29.487Z,961.75
2017-11-05T08:35:29.311Z,961.75
2017-11-05T08:36:29.413Z,961.78
2017-11-05T08:37:29.179Z,961.79
2017-11-05T08:38:29.220Z,961.75
2017-11-05T08:39:29.762Z,961.78
2017-11-05T08:40:29.521Z,961.76
2017-11-05T08:41:29.702Z,961.76
2017-11-05T08:42:29.436Z,961.78
2017-11-05T08:43:29.900Z,961.80
2017-11-05T08:44:30.028Z,961.78
2017-11-05T08:45:29.605Z,961.76
2017-11-05T08:46:29.873Z,961.72
2017-11-05T08:47:30.178Z,961.72
2017-11-05T08:48:29.708Z,961.73
2017-11-05T08:49:29.866Z,961.74
2017-11-05T08:50:30.438Z,961.72
2017-11-05T08:51:29.869Z,961.70
2017-11-05T08:52:30.282Z,961.72
2017-11-05T08:53:30.151Z,961.74
2017-11-05T08:54:30.315Z,961.71
2017-11-05T08:55:30.515Z,961.70
2017-11-05T08:56:30.451Z,961.69
2017-11-05T08:57:30.198Z,961.71
2017-11-05T08:58:30.552Z,961.70
2017-11-05T08:59:30.665Z,961.70
2017-11-05T09:00:30.444Z,961.73
2017-11-05T09:01:30.360Z,961.69
2017-11-05T09:02:30.504Z,961.68
2017-11-05T09:03:30.666Z,961.72
2017-11-05T09:04:30.560Z,961.74
2017-11-05T09:05:30.781Z,961.75
2017-11-05T09:06:30.809Z,961.76
2017-11-05T09:07:30.950Z,961.76
2017-11-05T09:08:31.034Z,961.78
2017-11-05T09:09:30.736Z,961.79
2017-11-05T09:10:31.218Z,961.78
2017-11-05T09:11:30.915Z,961.86
2017-11-05T09:12:30.914Z,961.86
2017-11-05T09:13:30.923Z,961.88
2017-11-05T09:14:30.999Z,961.88
2017-11-05T09:15:31.049Z,961.92
2017-11-05T09:16:31.400Z,961.88
2017-11-05T09:17:31.420Z,961.90
2017-11-05T09:18:31.212Z,961.91
2017-11-05T09:19:31.153Z,961.95
2017-11-05T09:20:31.310Z,962.01
2017-11-05T09:21:31.940Z,962.03
2017-11-05T09:22:31.388Z,962.04
2017-11-05T09:23:31.700Z,962.08
2017-11-05T09:24:31.502Z,962.11
2017-11-05T09:25:31.507Z,962.08
2017-11-05T09:26:31.991Z,962.12
2017-11-05T09:27:31.536Z,962.09
2017-11-05T09:28:31.836Z,962.13
2017-11-05T09:29:31.774Z,962.13
2017-11-05T09:30:31.707Z,962.17
2017-11-05T09:31:31.864Z,962.15
2017-11-05T09:32:32.070Z,962.13
2017-11-05T09:33:31.859Z,962.10
2017-11-05T09:34:31.882Z,962.11
2017-11-05T09:35:31.908Z,962.09
2017-11-05T09:36:32.317Z,962.05
2017-11-05T09:37:32.012Z,962.05
2017-11-05T09:38:32.250Z,962.03
2017-11-05T09:39:32.383Z,962.07
2017-11-05T09:40:32.236Z,962.07
2017-11-05T09:41:32.476Z,962.04
2017-11-05T09:42:32.365Z,962.05
2017-11-05T09:43:33.052Z,962.04
2017-11-05T09:44:32.606Z,962.03
2017-11-05T09:45:32.381Z,962.02
2017-11-05T09:46:32.757Z,961.99
2017-11-05T09:47:32.531Z,961.99
2017-11-05T09:48:32.979Z,961.92
2017-11-05T09:49:32.672Z,961.94
2017-11-05T09:50:32.711Z,961.97
2017-11-05T09:51:33.121Z,961.92
2017-11-05T09:52:32.749Z,961.94
2017-11-05T09:53:32.838Z,961.91
2017-11-05T09:54:33.070Z,961.92
2017-11-05T09:55:33.035Z,961.90
2017-11-05T09:56:33.235Z,961.92
2017-11-05T09:57:32.985Z,961.90
2017-11-05T09:58:33.119Z,961.92
2017-11-05T09:59:33.815Z,961.97
2017-11-05T10:00:33.406Z,961.95
2017-11-05T10:01:33.524Z,961.99
2017-11-05T10:02:33.477Z,962.01
2017-11-05T10:03:33.284Z,962.04
2017-11-05T10:04:33.460Z,962.06
2017-11-05T10:05:33.499Z,962.09
2017-11-05T10:06:33.525Z,962.09
2017-11-05T10:07:33.834Z,962.10
2017-11-05T10:08:33.803Z,962.10
2017-11-05T10:09:33.906Z,962.18
2017-11-05T10:10:33.608Z,962.15
2017-11-05T10:11:34.086Z,962.19
2017-11-05T10:12:34.011Z,962.15
2017-11-05T10:13:33.796Z,962.16
2017-11-05T10:14:33.929Z,962.19
2017-11-05T10:15:34.339Z,962.22
2017-11-05T10:16:34.020Z,962.20
2017-11-05T10:17:34.313Z,962.21
2017-11-05T10:18:34.188Z,962.22
2017-11-05T10:19:34.006Z,962.23
2017-11-05T10:20:34.249Z,962.25
2017-11-05T10:21:34.092Z,962.25
2017-11-05T10:22:34.425Z,962.25
2017-11-05T10:23:34.609Z,962.28
2017-11-05T10:24:34.289Z,962.24
2017-11-05T10:25:34.274Z,962.25
2017-11-05T10:26:34.463Z,962.26
2017-11-05T10:27:34.820Z,962.28
2017-11-05T10:28:34.582Z,962.32
2017-11-05T10:29:34.664Z,962.33
2017-11-05T10:30:34.636Z,962.32
2017-11-05T10:31:34.834Z,962.33
2017-11-05T10:32:34.666Z,962.30
2017-11-05T10:33:35.046Z,962.34
2017-11-05T10:34:35.112Z,962.36
2017-11-05T10:35:35.227Z,962.38
2017-11-05T10:36:34.951Z,962.43
2017-11-05T10:37:34.886Z,962.43
2017-11-05T10:38:35.389Z,962.44
2017-11-05T10:39:35.086Z,962.38
2017-11-05T10:40:35.671Z,962.39
2017-11-05T10:41:35.171Z,962.41
2017-11-05T10:42:35.175Z,962.40
2017-11-05T10:43:35.383Z,962.47
2017-11-05T10:44:35.336Z,962.39
2017-11-05T10:45:35.276Z,962.42
2017-11-05T10:46:35.699Z,962.46
2017-11-05T10:47:35.398Z,962.47
2017-11-05T10:48:35.835Z,962.48
2017-11-05T10:49:35.939Z,962.51
2017-11-05T10:50:35.607Z,962.52
2017-11-05T10:51:35.566Z,962.45
2017-11-05T10:52:35.772Z,962.53
2017-11-05T10:53:36.214Z,962.50
2017-11-05T10:54:35.708Z,962.44
2017-11-05T10:55:35.925Z,962.50
2017-11-05T10:56:36.078Z,962.49
2017-11-05T10:57:35.918Z,962.44
2017-11-05T10:58:36.579Z,962.50
2017-11-05T10:59:36.319Z,962.49
2017-11-05T11:00:36.789Z,962.46
2017-11-05T11:01:36.043Z,962.48
2017-11-05T11:02:36.257Z,962.45
2017-11-05T11:03:36.468Z,962.50
2017-11-05T11:04:36.337Z,962.45
2017-11-05T11:05:36.313Z,962.50
2017-11-05T11:06:36.380Z,962.50
2017-11-05T11:07:36.367Z,962.49
2017-11-05T11:08:36.500Z,962.48
2017-11-05T11:09:36.677Z,962.44
2017-11-05T11:10:36.548Z,962.47
2017-11-05T11:11:36.759Z,962.46
2017-11-05T11:12:36.838Z,962.45
2017-11-05T11:13:36.649Z,962.53
2017-11-05T11:14:37.058Z,962.53
2017-11-05T11:15:36.930Z,962.50
2017-11-05T11:16:37.009Z,962.51
2017-11-05T11:17:36.806Z,962.54
2017-11-05T11:18:36.821Z,962.71
2017-11-05T11:19:37.236Z,962.72
2017-11-05T11:20:36.962Z,962.74
2017-11-05T11:21:37.473Z,962.76
2017-11-05T11:22:37.379Z,962.79
2017-11-05T11:23:37.213Z,962.87
2017-11-05T11:24:37.668Z,962.95
2017-11-05T11:25:37.255Z,962.93
2017-11-05T11:26:37.295Z,962.96
2017-11-05T11:27:37.480Z,962.96
2017-11-05T11:28:37.759Z,962.98
2017-11-05T11:29:37.981Z,963.05
2017-11-05T11:30:37.594Z,963.05
2017-11-05T11:31:37.859Z,963.00
2017-11-05T11:32:37.813Z,963.00
2017-11-05T11:33:37.561Z,963.04
2017-11-05T11:34:37.928Z,963.04
2017-11-05T11:35:37.738Z,963.02
2017-11-05T11:36:37.772Z,963.03
2017-11-05T11:37:38.124Z,963.00
2017-11-05T11:38:38.017Z,963.01
2017-11-05T11:39:38.055Z,962.94
2017-11-05T11:40:38.209Z,963.15
2017-11-05T11:41:38.133Z,963.07
2017-11-05T11:42:38.153Z,963.09
2017-11-05T11:43:38.031Z,963.17
2017-11-05T11:44:38.334Z,963.15
2017-11-05T11:45:38.460Z,963.11
2017-11-05T11:46:38.578Z,963.10
2017-11-05T11:47:38.394Z,963.29
2017-11-05T11:48:38.378Z,963.24
2017-11-05T11:49:38.355Z,963.26
2017-11-05T11:50:38.409Z,963.26
2017-11-05T11:51:38.380Z,963.25
2017-11-05T11:52:38.577Z,963.26
2017-11-05T11:53:38.805Z,963.32
2017-11-05T11:54:38.681Z,963.34
2017-11-05T11:55:38.892Z,963.33
2017-11-05T11:56:38.698Z,963.42
2017-11-05T11:57:38.862Z,963.48
2017-11-05T11:58:38.645Z,963.49
2017-11-05T11:59:38.982Z,963.53
2017-11-05T12:00:38.889Z,963.59
2017-11-05T12:01:39.096Z,963.62
2017-11-05T12:02:38.959Z,963.64
2017-11-05T12:03:38.939Z,963.61
2017-11-05T12:04:39.421Z,963.64
2017-11-05T12:05:39.393Z,963.71
2017-11-05T12:06:39.605Z,963.79
2017-11-05T12:07:39.161Z,963.76
2017-11-05T12:08:39.263Z,963.78
2017-11-05T12:09:39.257Z,963.86
2017-11-05T12:10:39.734Z,963.88
2017-11-05T12:11:39.406Z,963.86
2017-11-05T12:12:39.684Z,963.90
2017-11-05T12:13:39.621Z,963.93
2017-11-05T12:14:39.382Z,963.97
2017-11-05T12:15:39.593Z,963.99
2017-11-05T12:16:39.915Z,963.97
2017-11-05T12:17:39.633Z,964.02
2017-11-05T12:18:39.601Z,964.03
2017-11-05T12:19:39.750Z,964.07
2017-11-05T12:20:39.739Z,964.13
2017-11-05T12:21:40.053Z,964.18
2017-11-05T12:22:39.943Z,964.25
2017-11-05T12:23:40.024Z,964.25
2017-11-05T12:24:39.882Z,964.28
2017-11-05T12:25:40.093Z,964.37
2017-11-05T12:26:40.478Z,964.42
2017-11-05T12:27:40.230Z,964.46
2017-11-05T12:28:40.523Z,964.51